Mill Point, West Virginia
Current Conditions -  °F | °C
As of 7:35 PM on Monday 24 Nov 2014 (Local Time) from KLWB Reporting Station
Clear Clear  
Wind Chill: 60°   Ceiling: Unl
Heat Index: 60°   Visibility: 10mi
Dew Point: 36°   Wind: 9mph
Humidity: 41%   Direction: 220°SW
Pressure: 29.79"   Gusts: NA
Location:  38.1931°N, 80.2861°W
Report Text: KLWB 250035Z AUTO 22008KT 10SM CLR 16/02 A2979 RMK AO2 T01550022
Loading
Personal Weather Stations






























Interactive Weather Map New forecast layout! Learn more

10-Day Weather Forecast

Advertisements
Track Severe Weather on mobile